Time;durP1;ratioP1;P1;durP2;ratioP2;P2;SDS_P1;SDS_P2;PMS_P1;PMS_P2;Temp;Humidity;BMP_temperature;BMP_pressure;BME280_temperature;BME280_humidity;BME280_pressure;Samples;Min_cycle;Max_cycle;Signal;HPM_P1;HPM_P2
2023/07/30 00:00:28;;;;;;;15.70;13.60;;;;;;;20.37;87.33;99821.19;84079;284;136566;-66
2023/07/30 00:02:30;;;;;;;10.80;9.90;;;;;;;20.38;87.62;99822.23;84174;283;25259;-66
2023/07/30 00:04:32;;;;;;;11.10;10.00;;;;;;;20.40;87.36;99830.13;84174;282;137188;-64
2023/07/30 00:06:34;;;;;;;5.00;4.50;;;;;;;20.38;87.09;99829.70;84134;283;22645;-66
2023/07/30 00:08:36;;;;;;;8.50;7.90;;;;;;;20.37;87.05;99829.64;84081;282;136124;-66
2023/07/30 00:10:37;;;;;;;9.30;8.60;;;;;;;20.38;87.06;99825.73;84248;282;25136;-64
2023/07/30 00:12:40;;;;;;;7.90;7.30;;;;;;;20.37;87.67;99824.66;84168;283;136487;-67
2023/07/30 00:14:43;;;;;;;4.70;4.30;;;;;;;20.37;88.09;99825.58;84173;284;25224;-66
2023/07/30 00:16:45;;;;;;;9.90;9.10;;;;;;;20.38;87.73;99821.30;84219;282;137028;-64
2023/07/30 00:18:47;;;;;;;12.30;11.30;;;;;;;20.45;88.29;99821.75;84269;282;22661;-65
2023/07/30 00:20:49;;;;;;;8.60;7.90;;;;;;;20.57;88.08;99819.26;84067;283;137081;-67
2023/07/30 00:22:51;;;;;;;7.90;7.20;;;;;;;20.69;87.10;99818.38;84214;283;25608;-67
2023/07/30 00:24:53;;;;;;;9.30;8.60;;;;;;;20.75;86.71;99819.16;84007;283;136461;-65
2023/07/30 00:26:54;;;;;;;8.70;7.90;;;;;;;20.77;86.21;99814.21;84312;282;25146;-67
2023/07/30 00:28:56;;;;;;;7.20;6.70;;;;;;;20.71;85.98;99812.05;84270;282;137892;-67
2023/07/30 00:30:58;;;;;;;5.60;5.20;;;;;;;20.60;85.92;99812.01;84293;282;24328;-64
2023/07/30 00:33:02;;;;;;;7.80;7.30;;;;;;;20.42;86.34;99809.89;84159;281;136464;-64
2023/07/30 00:35:05;;;;;;;3.20;3.00;;;;;;;20.23;87.66;99813.52;84193;283;25136;-66
2023/07/30 00:37:07;;;;;;;8.50;7.90;;;;;;;20.07;88.54;99815.56;84028;283;137298;-66
2023/07/30 00:39:11;;;;;;;11.30;10.40;;;;;;;19.97;89.83;99812.27;84356;282;22586;-66
2023/07/30 00:41:13;;;;;;;10.70;9.80;;;;;;;19.92;90.70;99809.15;84217;282;137046;-66
2023/07/30 00:43:15;;;;;;;6.30;5.70;;;;;;;19.89;91.59;99811.21;84188;271;22559;-64
2023/07/30 00:45:17;;;;;;;3.60;3.40;;;;;;;19.88;91.11;99811.25;84107;283;137168;-66
2023/07/30 00:47:20;;;;;;;7.50;7.00;;;;;;;19.83;90.95;99807.92;84218;282;25219;-65
2023/07/30 00:49:22;;;;;;;8.30;7.70;;;;;;;19.74;92.28;99806.42;84258;282;138466;-64
2023/07/30 00:51:24;;;;;;;8.50;7.80;;;;;;;19.73;93.41;99804.29;84266;283;24234;-64
2023/07/30 00:53:28;;;;;;;5.90;5.50;;;;;;;19.80;93.47;99802.93;84277;282;136952;-61
2023/07/30 00:55:30;;;;;;;7.30;6.80;;;;;;;19.84;93.22;99799.12;84295;283;22679;-66
2023/07/30 00:57:32;;;;;;;11.50;10.60;;;;;;;19.79;93.06;99796.38;84417;281;136963;-65
2023/07/30 00:59:34;;;;;;;12.00;11.10;;;;;;;19.72;93.36;99802.27;84441;281;24126;-62
2023/07/30 01:01:38;;;;;;;13.80;12.70;;;;;;;19.64;93.58;99802.98;84197;282;139995;-65
2023/07/30 01:03:41;;;;;;;9.50;8.70;;;;;;;19.57;94.97;99801.80;84306;283;23854;-65
2023/07/30 01:05:45;;;;;;;12.70;11.40;;;;;;;19.59;95.74;99802.41;84082;281;136980;-64
2023/07/30 01:07:47;;;;;;;6.70;6.10;;;;;;;19.71;95.76;99801.29;84222;283;25228;-66
2023/07/30 01:09:49;;;;;;;8.30;7.70;;;;;;;19.83;94.94;99799.42;84119;281;136953;-67
2023/07/30 01:11:53;;;;;;;11.30;10.30;;;;;;;19.91;94.19;99798.34;84324;282;22580;-69
2023/07/30 01:13:56;;;;;;;12.20;11.10;;;;;;;19.98;93.86;99799.40;84153;283;136574;-63
2023/07/30 01:15:58;;;;;;;8.20;7.60;;;;;;;20.03;93.40;99800.66;84363;282;24115;-68
2023/07/30 01:18:00;;;;;;;4.00;3.30;;;;;;;20.04;92.73;99802.17;84176;283;137625;-67
2023/07/30 01:20:02;;;;;;;3.70;3.40;;;;;;;19.91;92.12;99797.75;84256;279;25258;-66
2023/07/30 01:22:05;;;;;;;6.40;5.90;;;;;;;19.77;93.04;99796.80;84159;283;22546;-68
2023/07/30 01:24:07;;;;;;;8.00;7.40;;;;;;;19.62;94.24;99799.87;84094;283;137326;-68
2023/07/30 01:26:22;;;;;;;3.00;2.90;;;;;;;19.57;96.15;99800.77;84369;282;24100;-66
2023/07/30 01:28:27;;;;;;;4.50;4.10;;;;;;;19.55;95.88;99802.10;84206;283;137730;-65
2023/07/30 01:30:31;;;;;;;;;;;;;;;19.45;96.17;99800.69;84208;283;22566;-65
2023/07/30 01:32:33;;;;;;;4.80;3.20;;;;;;;19.31;96.30;99796.70;84174;282;124334;-64
2023/07/30 01:34:37;;;;;;;5.70;5.00;;;;;;;19.16;96.85;99800.48;84277;282;24099;-66
2023/07/30 01:36:40;;;;;;;2.60;2.50;;;;;;;19.11;98.39;99796.93;84163;282;136884;-62
2023/07/30 01:38:43;;;;;;;3.00;2.80;;;;;;;19.07;98.73;99795.28;84331;283;22557;-66
2023/07/30 01:40:46;;;;;;;2.50;2.40;;;;;;;19.01;99.62;99802.14;84194;282;138268;-66
2023/07/30 01:42:49;;;;;;;3.80;3.50;;;;;;;18.96;100.00;99802.48;84297;283;22552;-64
2023/07/30 01:44:51;;;;;;;3.20;2.90;;;;;;;18.88;100.00;99804.99;84235;282;137227;-66
2023/07/30 01:46:53;;;;;;;2.40;2.30;;;;;;;18.77;100.00;99804.77;84285;282;22617;-66
2023/07/30 01:48:56;;;;;;;2.90;2.70;;;;;;;18.68;100.00;99808.67;84275;282;137158;-63
2023/07/30 01:50:57;;;;;;;5.10;4.70;;;;;;;18.53;100.00;99800.47;84219;282;22807;-63
2023/07/30 01:52:59;;;;;;;3.70;3.50;;;;;;;18.54;100.00;99810.15;84048;282;138628;-68
2023/07/30 01:55:01;;;;;;;4.40;3.70;;;;;;;18.48;100.00;99807.60;84290;282;23278;-67
2023/07/30 01:57:03;;;;;;;3.20;3.00;;;;;;;18.45;100.00;99813.99;84192;283;138267;-64
2023/07/30 01:59:05;;;;;;;3.00;2.20;;;;;;;18.34;100.00;99812.78;84236;283;22610;-66
2023/07/30 02:01:07;;;;;;;3.60;3.40;;;;;;;18.23;100.00;99812.82;84125;283;139575;-65
2023/07/30 02:03:09;;;;;;;2.70;2.60;;;;;;;18.12;100.00;99810.48;84185;282;22838;-63
2023/07/30 02:05:11;;;;;;;2.90;2.80;;;;;;;18.03;100.00;99807.94;84045;283;137475;-65
2023/07/30 02:07:14;;;;;;;3.20;3.00;;;;;;;17.95;100.00;99808.75;84382;282;22653;-66
2023/07/30 02:09:15;;;;;;;4.10;3.70;;;;;;;17.89;100.00;99813.58;83915;282;428230;-67
2023/07/30 02:11:17;;;;;;;3.00;2.80;;;;;;;17.88;100.00;99815.79;84300;283;22549;-67
2023/07/30 02:13:19;;;;;;;3.00;2.90;;;;;;;17.86;100.00;99817.11;84181;283;137133;-69
2023/07/30 02:15:21;;;;;;;3.40;3.20;;;;;;;17.85;100.00;99819.73;84276;283;25134;-68
2023/07/30 02:17:23;;;;;;;3.40;3.10;;;;;;;17.83;100.00;99817.93;84092;282;137257;-67
2023/07/30 02:19:25;;;;;;;3.50;3.10;;;;;;;17.79;100.00;99811.80;84060;284;23578;-67
2023/07/30 02:21:27;;;;;;;5.10;4.70;;;;;;;17.75;100.00;99808.30;84098;283;136959;-63
2023/07/30 02:23:29;;;;;;;4.10;3.90;;;;;;;17.75;100.00;99809.36;84160;283;22550;-66
2023/07/30 02:25:31;;;;;;;3.50;3.30;;;;;;;17.71;100.00;99815.91;84198;283;136999;-66
2023/07/30 02:27:33;;;;;;;2.90;2.80;;;;;;;17.67;100.00;99816.00;84305;283;22551;-65
2023/07/30 02:29:35;;;;;;;3.50;3.30;;;;;;;17.64;100.00;99816.13;84287;283;137060;-68
2023/07/30 02:31:37;;;;;;;2.90;2.80;;;;;;;17.62;100.00;99814.86;84282;283;24137;-69
2023/07/30 02:33:40;;;;;;;6.50;5.20;;;;;;;17.64;100.00;99820.42;84202;283;137452;-64
2023/07/30 02:35:43;;;;;;;3.60;3.40;;;;;;;17.64;100.00;99824.64;84179;283;22567;-65
2023/07/30 02:37:45;;;;;;;3.30;3.10;;;;;;;17.63;100.00;99824.88;84008;282;137282;-68
2023/07/30 02:39:47;;;;;;;5.50;5.10;;;;;;;17.63;100.00;99829.73;84305;283;22574;-63
2023/07/30 02:41:49;;;;;;;5.00;4.70;;;;;;;17.63;100.00;99828.13;84200;282;138073;-66
2023/07/30 02:43:51;;;;;;;3.60;2.90;;;;;;;17.69;100.00;99833.00;84391;282;22586;-67
2023/07/30 02:45:53;;;;;;;3.40;3.20;;;;;;;17.74;100.00;99833.93;84121;283;137188;-63
2023/07/30 02:47:56;;;;;;;4.00;3.60;;;;;;;17.78;100.00;99839.38;84210;274;22714;-65
2023/07/30 02:49:57;;;;;;;3.70;3.50;;;;;;;17.77;100.00;99836.73;84156;283;136926;-63
2023/07/30 02:52:02;;;;;;;4.30;4.10;;;;;;;17.79;100.00;99843.38;84174;284;23760;-63
2023/07/30 02:54:06;;;;;;;9.30;8.50;;;;;;;17.83;100.00;99844.31;84302;283;22564;-65
2023/07/30 02:56:08;;;;;;;4.40;3.70;;;;;;;18.00;100.00;99847.48;84176;284;137485;-66
2023/07/30 02:58:10;;;;;;;5.50;5.00;;;;;;;18.14;100.00;99848.47;84282;283;26296;-66
2023/07/30 03:00:13;;;;;;;3.30;3.20;;;;;;;18.20;100.00;99848.39;84147;284;137169;-69
2023/07/30 03:02:14;;;;;;;3.20;3.00;;;;;;;18.26;100.00;99849.80;84109;284;24269;-65
2023/07/30 03:04:16;;;;;;;3.00;2.80;;;;;;;18.28;100.00;99845.04;84033;283;138846;-68
2023/07/30 03:06:18;;;;;;;4.60;3.20;;;;;;;18.35;100.00;99839.77;84173;281;25185;-68
2023/07/30 03:08:21;;;;;;;7.60;7.00;;;;;;;18.61;100.00;99839.48;84178;282;137031;-66
2023/07/30 03:10:23;;;;;;;4.80;4.40;;;;;;;19.08;100.00;99842.49;84214;283;25295;-67
2023/07/30 03:12:24;;;;;;;3.40;3.30;;;;;;;19.74;100.00;99842.09;84120;283;137312;-66
2023/07/30 03:14:26;;;;;;;3.40;3.10;;;;;;;20.29;100.00;99841.78;84298;283;25607;-68
2023/07/30 03:16:28;;;;;;;3.40;3.20;;;;;;;20.76;99.95;99845.03;84242;272;138627;-66
2023/07/30 03:18:30;;;;;;;2.20;2.10;;;;;;;21.22;96.65;99843.45;84181;283;24209;-67
2023/07/30 03:20:32;;;;;;;2.70;2.60;;;;;;;21.64;93.54;99842.59;84127;282;136477;-68
2023/07/30 03:22:34;;;;;;;2.80;2.70;;;;;;;22.04;89.71;99841.19;84156;284;22567;-68
2023/07/30 03:24:36;;;;;;;2.30;2.20;;;;;;;22.43;87.18;99841.23;84196;284;137701;-65
2023/07/30 03:26:38;;;;;;;3.90;3.20;;;;;;;22.85;84.80;99844.72;84363;282;22669;-66
2023/07/30 03:28:39;;;;;;;3.50;2.70;;;;;;;23.21;81.93;99841.27;84276;282;136270;-68
2023/07/30 03:30:41;;;;;;;2.90;2.70;;;;;;;23.74;78.70;99853.05;84313;283;25147;-63
2023/07/30 03:32:44;;;;;;;3.40;2.30;;;;;;;24.08;75.90;99842.20;84234;282;136047;-67
2023/07/30 03:34:46;;;;;;;2.20;1.60;;;;;;;24.38;73.86;99839.15;84240;272;25097;-65
2023/07/30 03:36:48;;;;;;;3.80;3.50;;;;;;;24.71;72.13;99840.15;84181;270;136236;-67
2023/07/30 03:38:50;;;;;;;2.30;2.10;;;;;;;25.11;70.38;99839.82;84326;282;24100;-68
2023/07/30 03:40:51;;;;;;;2.40;2.20;;;;;;;25.53;67.86;99839.91;84201;282;136181;-68
2023/07/30 03:42:53;;;;;;;1.60;1.50;;;;;;;25.84;65.67;99834.63;84332;282;24060;-69
2023/07/30 03:44:55;;;;;;;2.70;2.10;;;;;;;26.07;64.57;99832.84;84157;282;136070;-66
2023/07/30 03:46:57;;;;;;;2.00;1.90;;;;;;;26.41;63.32;99832.02;84272;283;24134;-72
2023/07/30 03:49:01;;;;;;;1.60;1.60;;;;;;;26.66;61.61;99823.62;84102;283;136756;-65
2023/07/30 03:51:03;;;;;;;2.70;2.10;;;;;;;26.90;60.29;99822.34;84190;285;22802;-65
2023/07/30 03:53:05;;;;;;;2.70;2.00;;;;;;;27.09;59.17;99815.83;84259;283;136508;-68
2023/07/30 03:55:07;;;;;;;1.70;1.60;;;;;;;27.30;57.86;99814.73;84286;282;22625;-67
2023/07/30 03:57:09;;;;;;;4.80;2.10;;;;;;;27.49;56.79;99812.60;84200;283;136390;-65
2023/07/30 03:59:11;;;;;;;2.70;2.20;;;;;;;27.66;56.35;99812.81;84290;282;25153;-67
2023/07/30 04:01:13;;;;;;;2.30;2.10;;;;;;;27.82;55.44;99815.73;84090;282;137333;-67
2023/07/30 04:03:15;;;;;;;2.10;1.90;;;;;;;28.01;55.34;99818.42;84414;283;22607;-66
2023/07/30 04:05:17;;;;;;;2.10;2.00;;;;;;;28.21;54.60;99812.77;84082;282;136410;-67
2023/07/30 04:07:19;;;;;;;2.90;2.40;;;;;;;28.39;53.56;99809.20;84183;282;25252;-66
2023/07/30 04:09:20;;;;;;;2.60;2.40;;;;;;;28.53;52.24;99804.85;84089;282;137313;-66
2023/07/30 04:11:22;;;;;;;2.20;2.00;;;;;;;28.69;51.75;99806.48;84229;282;25326;-66
2023/07/30 04:13:24;;;;;;;2.60;2.40;;;;;;;28.84;51.46;99808.80;84084;283;137604;-66
2023/07/30 04:15:26;;;;;;;4.30;1.80;;;;;;;28.99;51.02;99805.38;84206;281;24137;-66
2023/07/30 04:17:28;;;;;;;1.90;1.80;;;;;;;29.12;50.90;99804.68;84172;282;136251;-66
2023/07/30 04:19:29;;;;;;;2.10;1.40;;;;;;;29.22;49.61;99803.73;84126;283;22641;-65
2023/07/30 04:21:31;;;;;;;10.30;2.50;;;;;;;29.38;49.00;99805.89;84030;284;135855;-65
2023/07/30 04:23:33;;;;;;;3.40;2.60;;;;;;;29.51;48.80;99806.34;84082;284;25265;-66
2023/07/30 04:25:35;;;;;;;3.70;2.60;;;;;;;29.63;48.33;99804.48;84081;283;137938;-66
2023/07/30 04:27:37;;;;;;;3.30;2.80;;;;;;;29.75;47.85;99807.42;84171;283;25291;-66
2023/07/30 04:29:39;;;;;;;2.60;2.40;;;;;;;29.78;47.54;99805.93;83995;284;136454;-66
2023/07/30 04:31:41;;;;;;;4.00;2.60;;;;;;;29.83;47.08;99803.84;84292;282;22649;-65
2023/07/30 04:33:43;;;;;;;2.40;2.20;;;;;;;29.93;46.64;99806.58;84014;283;136719;-69
2023/07/30 04:35:45;;;;;;;3.90;3.20;;;;;;;30.03;46.48;99804.54;84589;283;24135;-65
2023/07/30 04:37:47;;;;;;;4.20;2.70;;;;;;;30.11;46.49;99805.73;84039;284;136642;-66
2023/07/30 04:39:49;;;;;;;2.30;2.10;;;;;;;30.17;46.09;99804.23;84220;283;22591;-64
2023/07/30 04:41:51;;;;;;;3.00;2.80;;;;;;;30.24;46.41;99802.86;84077;283;137144;-66
2023/07/30 04:43:53;;;;;;;3.10;2.60;;;;;;;30.35;46.27;99804.79;84158;283;25292;-64
2023/07/30 04:45:55;;;;;;;2.20;2.10;;;;;;;30.39;46.38;99807.94;84287;282;134891;-67
2023/07/30 04:47:58;;;;;;;4.90;3.00;;;;;;;30.33;46.35;99807.95;84272;282;23707;-66
2023/07/30 04:50:00;;;;;;;3.70;3.30;;;;;;;30.36;47.00;99809.24;84167;283;136646;-69
2023/07/30 04:52:05;;;;;;;;;;;;;;;30.47;46.92;99806.45;84115;283;138054;-67
2023/07/30 04:54:07;;;;;;;3.30;3.10;;;;;;;30.55;46.53;99809.48;84298;283;22552;-66
2023/07/30 04:56:09;;;;;;;3.10;2.90;;;;;;;30.60;46.30;99812.23;84136;282;137772;-65
2023/07/30 04:58:11;;;;;;;5.00;3.00;;;;;;;30.61;46.40;99819.38;84137;283;22541;-66
2023/07/30 05:00:13;;;;;;;2.90;2.70;;;;;;;30.61;46.49;99821.16;83991;283;136451;-66
2023/07/30 05:02:15;;;;;;;2.80;2.60;;;;;;;30.64;46.51;99827.56;84263;283;22654;-66
2023/07/30 05:04:18;;;;;;;2.40;2.20;;;;;;;30.67;46.74;99822.49;84061;282;136731;-65
2023/07/30 05:06:20;;;;;;;2.40;2.20;;;;;;;30.58;46.20;99816.36;84188;282;24111;-65
2023/07/30 05:08:23;;;;;;;2.20;1.90;;;;;;;30.45;46.63;99819.14;84089;282;136307;-66
2023/07/30 05:10:24;;;;;;;4.90;2.30;;;;;;;30.18;46.47;99818.58;84254;283;22567;-66
2023/07/30 05:12:26;;;;;;;2.40;2.30;;;;;;;29.98;47.58;99821.32;84081;282;137518;-67
2023/07/30 05:14:28;;;;;;;2.90;2.10;;;;;;;29.89;48.41;99813.11;84179;282;22930;-66
2023/07/30 05:16:30;;;;;;;2.30;2.20;;;;;;;29.80;48.81;99811.32;84179;282;136385;-65
2023/07/30 05:18:32;;;;;;;2.10;2.00;;;;;;;29.67;49.26;99814.23;84237;282;25242;-67
2023/07/30 05:20:34;;;;;;;2.40;2.20;;;;;;;29.62;49.73;99814.17;84126;282;136240;-67
2023/07/30 05:22:36;;;;;;;2.50;2.30;;;;;;;29.59;50.19;99813.09;84497;283;24102;-66
2023/07/30 05:24:38;;;;;;;3.60;2.70;;;;;;;29.56;49.99;99808.45;84012;282;136272;-67
2023/07/30 05:26:40;;;;;;;3.20;2.90;;;;;;;29.60;49.76;99814.29;84169;283;23055;-66
2023/07/30 05:28:42;;;;;;;2.80;2.60;;;;;;;29.58;49.45;99814.87;84123;282;136796;-68
2023/07/30 05:30:43;;;;;;;3.90;3.40;;;;;;;29.46;49.90;99812.81;84292;282;22853;-67
2023/07/30 05:32:45;;;;;;;2.70;2.00;;;;;;;29.42;50.02;99805.98;84071;283;137492;-66
2023/07/30 05:34:48;;;;;;;2.20;2.00;;;;;;;29.44;50.23;99804.10;84236;272;24084;-67
2023/07/30 05:36:49;;;;;;;2.60;2.40;;;;;;;29.28;50.47;99805.63;84207;282;136285;-67
2023/07/30 05:38:51;;;;;;;3.80;2.30;;;;;;;29.11;50.93;99809.73;84206;281;25255;-66
2023/07/30 05:40:53;;;;;;;2.00;1.90;;;;;;;29.03;51.57;99809.85;84117;282;136947;-67
2023/07/30 05:42:55;;;;;;;2.90;2.40;;;;;;;29.03;51.76;99810.39;84129;282;26349;-65
2023/07/30 05:44:57;;;;;;;1.70;1.70;;;;;;;29.04;51.45;99805.68;83963;282;136121;-65
2023/07/30 05:46:59;;;;;;;2.80;1.40;;;;;;;29.14;51.87;99800.39;84301;282;25326;-68
2023/07/30 05:49:02;;;;;;;2.50;2.30;;;;;;;29.21;50.16;99798.58;84191;282;136849;-65
2023/07/30 05:51:04;;;;;;;1.50;1.40;;;;;;;29.18;50.14;99805.74;84352;281;25295;-69
2023/07/30 05:53:06;;;;;;;1.70;1.60;;;;;;;29.03;50.70;99810.23;84177;282;136284;-67
2023/07/30 05:55:08;;;;;;;1.40;1.40;;;;;;;28.96;50.67;99808.38;84259;282;24089;-67
2023/07/30 05:57:10;;;;;;;1.30;1.30;;;;;;;28.91;51.18;99811.98;84164;282;136112;-67
2023/07/30 05:59:12;;;;;;;2.40;1.90;;;;;;;28.87;51.45;99813.61;84206;282;22846;-67
2023/07/30 06:01:19;;;;;;;1.90;1.80;;;;;;;28.84;52.53;99812.09;84195;282;137760;-67
2023/07/30 06:03:22;;;;;;;1.10;1.00;;;;;;;28.94;53.09;99805.37;84377;281;25158;-68
2023/07/30 06:05:23;;;;;;;1.30;1.10;;;;;;;29.14;51.99;99798.73;84197;282;136065;-68
2023/07/30 06:07:25;;;;;;;1.70;1.30;;;;;;;29.24;50.73;99799.40;84254;282;24157;-66
2023/07/30 06:09:27;;;;;;;1.20;1.10;;;;;;;29.16;50.25;99792.70;84090;282;137387;-65
2023/07/30 06:12:22;;;;;;;3.80;1.10;;;;;;;29.13;51.00;99801.77;82896;306;545777;-67
2023/07/30 06:14:25;;;;;;;1.70;1.50;;;;;;;29.07;51.11;99796.84;83598;295;23714;-69
2023/07/30 06:16:27;;;;;;;1.50;1.30;;;;;;;29.07;51.71;99795.52;83653;295;136151;-63
2023/07/30 06:18:29;;;;;;;3.30;1.20;;;;;;;29.19;51.35;99793.80;83773;295;26212;-66
2023/07/30 06:20:31;;;;;;;1.50;1.10;;;;;;;29.40;51.07;99796.10;83517;295;136898;-67
2023/07/30 06:22:32;;;;;;;1.60;0.80;;;;;;;29.49;49.83;99793.20;83624;295;25284;-65
2023/07/30 06:24:34;;;;;;;1.30;0.60;;;;;;;29.49;47.58;99792.30;83503;295;137166;-64
2023/07/30 06:26:36;;;;;;;0.90;0.70;;;;;;;29.36;47.84;99795.65;83259;294;384118;-67
2023/07/30 06:28:38;;;;;;;0.50;0.50;;;;;;;29.15;47.33;99794.81;83640;293;135868;-65
2023/07/30 06:30:41;;;;;;;1.20;0.70;;;;;;;29.05;47.62;99795.20;83704;293;22559;-68
2023/07/30 06:32:43;;;;;;;2.30;0.70;;;;;;;28.97;46.97;99792.42;83676;294;137078;-68
2023/07/30 06:34:44;;;;;;;0.90;0.80;;;;;;;28.86;47.82;99792.05;83692;294;25168;-63
2023/07/30 06:36:46;;;;;;;0.90;0.30;;;;;;;28.77;46.59;99794.06;83823;287;135979;-64
2023/07/30 06:38:48;;;;;;;1.10;1.10;;;;;;;28.75;47.38;99791.67;83887;287;22647;-64
2023/07/30 06:40:50;;;;;;;0.80;0.60;;;;;;;28.74;47.49;99789.84;83773;287;136002;-67
2023/07/30 06:42:52;;;;;;;0.70;0.60;;;;;;;28.67;47.46;99791.71;83887;288;22586;-68
2023/07/30 06:44:54;;;;;;;0.80;0.60;;;;;;;28.46;47.88;99787.16;83806;287;135979;-65
2023/07/30 06:46:55;;;;;;;1.80;0.80;;;;;;;28.28;46.54;99789.08;83974;288;22555;-68
2023/07/30 06:48:57;;;;;;;0.40;0.30;;;;;;;28.14;47.19;99786.60;83810;287;135969;-61
2023/07/30 06:50:59;;;;;;;0.80;0.50;;;;;;;28.08;47.78;99789.56;83853;287;24057;-66
2023/07/30 06:53:01;;;;;;;0.50;0.40;;;;;;;28.06;46.95;99784.84;83852;287;135780;-66
2023/07/30 06:55:03;;;;;;;2.60;0.60;;;;;;;28.08;47.73;99786.78;83888;287;22560;-63
2023/07/30 06:57:05;;;;;;;2.00;0.40;;;;;;;28.20;47.19;99785.87;83792;288;135982;-65
2023/07/30 06:59:07;;;;;;;0.60;0.60;;;;;;;28.33;45.89;99779.61;84175;287;22566;-67
2023/07/30 07:01:09;;;;;;;0.50;0.40;;;;;;;28.45;45.12;99780.30;84014;286;136081;-65
2023/07/30 07:03:11;;;;;;;1.40;0.20;;;;;;;28.62;44.75;99777.17;84073;286;25134;-67
2023/07/30 07:05:14;;;;;;;0.40;0.40;;;;;;;28.77;43.26;99781.96;83942;275;136003;-69
2023/07/30 07:07:16;;;;;;;1.80;0.30;;;;;;;28.79;43.55;99782.41;84019;286;25541;-68
2023/07/30 07:09:18;;;;;;;1.80;0.60;;;;;;;28.76;43.98;99783.29;83905;286;135857;-68
2023/07/30 07:11:20;;;;;;;0.50;0.30;;;;;;;28.77;43.38;99781.20;84138;287;25181;-66
2023/07/30 07:13:22;;;;;;;0.90;0.40;;;;;;;28.85;42.76;99776.86;83830;287;135946;-66
2023/07/30 07:15:24;;;;;;;1.20;0.40;;;;;;;28.84;43.12;99780.02;83926;286;25284;-68
2023/07/30 07:17:28;;;;;;;;;;;;;;;28.76;42.71;99775.99;83914;285;135699;-68
2023/07/30 07:19:31;;;;;;;0.80;0.50;;;;;;;28.69;43.24;99772.10;83979;285;22556;-67
2023/07/30 07:21:32;;;;;;;1.00;0.40;;;;;;;28.69;43.82;99771.23;83859;286;135967;-68
2023/07/30 07:23:34;;;;;;;0.30;0.30;;;;;;;28.75;42.91;99772.73;84063;286;24144;-68
2023/07/30 07:25:37;;;;;;;0.90;0.30;;;;;;;28.77;43.67;99769.05;84050;286;136028;-67
2023/07/30 07:27:39;;;;;;;0.90;0.60;;;;;;;28.76;44.19;99767.20;84138;286;25848;-67
2023/07/30 07:29:41;;;;;;;1.20;0.30;;;;;;;28.69;44.10;99764.93;84004;286;135846;-69
2023/07/30 07:31:45;;;;;;;1.60;0.30;;;;;;;28.58;43.00;99764.61;84044;286;25227;-67
2023/07/30 07:33:47;;;;;;;0.70;0.40;;;;;;;28.47;43.58;99767.63;84033;286;135828;-66
2023/07/30 07:35:48;;;;;;;0.30;0.20;;;;;;;28.36;44.91;99764.91;83933;286;25374;-67
2023/07/30 07:37:50;;;;;;;0.30;0.30;;;;;;;28.21;43.99;99774.11;83884;287;135585;-68
2023/07/30 07:39:52;;;;;;;0.70;0.20;;;;;;;27.96;44.75;99773.09;84005;286;22553;-65
2023/07/30 07:41:55;;;;;;;2.40;0.70;;;;;;;27.71;45.73;99776.83;83846;286;135658;-67
2023/07/30 07:43:57;;;;;;;2.70;0.90;;;;;;;27.53;46.07;99781.63;83996;286;22865;-68
2023/07/30 07:45:58;;;;;;;0.50;0.40;;;;;;;27.41;47.01;99778.76;83921;286;135382;-69
2023/07/30 07:48:01;;;;;;;2.30;0.30;;;;;;;27.37;47.49;99780.94;84005;276;25288;-66
2023/07/30 07:50:03;;;;;;;3.70;0.60;;;;;;;27.29;48.00;99781.65;83939;286;135346;-68
2023/07/30 07:52:05;;;;;;;2.70;0.50;;;;;;;27.06;48.29;99786.67;83970;286;136340;-68
2023/07/30 07:54:07;;;;;;;0.50;0.40;;;;;;;26.81;49.41;99779.37;84139;286;22780;-69
2023/07/30 07:56:09;;;;;;;2.90;1.10;;;;;;;26.60;51.24;99776.53;83822;286;136136;-69
2023/07/30 07:58:11;;;;;;;2.70;0.90;;;;;;;26.49;51.56;99774.19;84076;286;22561;-66
2023/07/30 08:00:13;;;;;;;0.30;0.30;;;;;;;26.43;52.63;99773.27;84073;286;139052;-68
2023/07/30 08:02:15;;;;;;;0.50;0.50;;;;;;;26.46;52.87;99768.41;83905;286;22852;-67
2023/07/30 08:04:18;;;;;;;0.80;0.50;;;;;;;26.50;53.50;99766.91;83926;286;137524;-67
2023/07/30 08:06:20;;;;;;;0.60;0.60;;;;;;;26.53;53.51;99767.87;84050;286;25180;-65
2023/07/30 08:08:25;;;;;;;2.80;0.60;;;;;;;26.55;52.87;99758.81;83883;286;136068;-67
2023/07/30 08:10:27;;;;;;;2.20;0.60;;;;;;;26.55;53.02;99758.04;84118;286;23654;-68
2023/07/30 08:12:32;;;;;;;5.30;0.90;;;;;;;26.62;53.42;99756.09;83912;286;135804;-65
2023/07/30 08:14:34;;;;;;;0.70;0.60;;;;;;;26.69;53.81;99758.73;83983;286;22665;-66
2023/07/30 08:16:36;;;;;;;1.80;1.00;;;;;;;26.62;53.82;99760.57;83852;286;136047;-67
2023/07/30 08:18:37;;;;;;;0.60;0.60;;;;;;;26.51;54.32;99759.72;83920;287;22832;-67
2023/07/30 08:20:40;;;;;;;1.00;0.50;;;;;;;26.40;55.30;99759.91;83888;275;136125;-68
2023/07/30 08:22:41;;;;;;;1.40;0.60;;;;;;;26.37;55.70;99755.28;84015;286;24959;-68
2023/07/30 08:24:44;;;;;;;0.40;0.30;;;;;;;26.37;55.72;99757.73;83798;286;137476;-67
2023/07/30 08:26:46;;;;;;;0.80;0.40;;;;;;;26.37;55.10;99758.41;83991;286;22582;-67
2023/07/30 08:28:48;;;;;;;0.70;0.70;;;;;;;26.34;55.43;99754.37;83800;286;137284;-66
2023/07/30 08:30:50;;;;;;;1.20;1.10;;;;;;;26.28;55.60;99752.77;83963;286;26273;-67
2023/07/30 08:32:52;;;;;;;0.30;0.30;;;;;;;26.18;56.22;99750.08;83799;286;136151;-66
2023/07/30 08:34:54;;;;;;;1.70;0.40;;;;;;;26.15;56.51;99754.46;83967;286;22560;-68
2023/07/30 08:36:56;;;;;;;1.10;0.70;;;;;;;26.16;56.68;99754.71;83925;286;135880;-68
2023/07/30 08:38:58;;;;;;;1.50;0.40;;;;;;;26.11;56.81;99759.19;83950;286;22848;-70
2023/07/30 08:41:00;;;;;;;0.60;0.60;;;;;;;26.01;56.84;99758.64;83901;286;136799;-69
2023/07/30 08:43:03;;;;;;;0.90;0.70;;;;;;;25.86;57.36;99745.88;84030;286;23228;-67
2023/07/30 08:45:08;;;;;;;2.30;0.40;;;;;;;25.87;58.39;99755.30;83893;286;135896;-67
2023/07/30 08:47:11;;;;;;;0.50;0.50;;;;;;;25.87;57.75;99756.44;84117;286;22549;-67
2023/07/30 08:49:12;;;;;;;1.70;0.40;;;;;;;25.83;57.35;99759.19;83928;287;135401;-66
2023/07/30 08:51:15;;;;;;;1.50;0.40;;;;;;;25.78;57.43;99760.33;83956;286;22578;-67
2023/07/30 08:53:18;;;;;;;0.60;0.30;;;;;;;25.76;58.14;99762.06;83991;286;135887;-69
2023/07/30 08:55:22;;;;;;;0.50;0.40;;;;;;;25.73;57.82;99760.00;84042;286;22550;-68
2023/07/30 08:57:26;;;;;;;0.60;0.50;;;;;;;25.66;57.65;99757.41;83836;286;135827;-67
2023/07/30 08:59:33;;;;;;;0.50;0.20;;;;;;;25.59;58.30;99757.21;84019;286;22555;-67
2023/07/30 09:01:38;;;;;;;2.10;0.40;;;;;;;25.57;58.90;99758.95;84005;286;136187;-68
2023/07/30 09:03:40;;;;;;;1.20;0.60;;;;;;;25.56;59.22;99760.05;84074;286;23443;-67
2023/07/30 09:05:43;;;;;;;0.30;0.30;;;;;;;25.53;59.08;99762.62;84448;285;136165;-67
2023/07/30 09:07:45;;;;;;;0.90;0.40;;;;;;;25.53;59.58;99762.46;84017;286;22577;-68
2023/07/30 09:09:47;;;;;;;0.80;0.50;;;;;;;25.51;60.03;99759.78;83899;286;136034;-66
2023/07/30 09:11:54;;;;;;;1.80;0.30;;;;;;;25.48;60.34;99759.17;84012;286;24046;-67
2023/07/30 09:13:56;;;;;;;1.10;0.60;;;;;;;25.46;62.64;99755.70;84007;286;135721;-68
2023/07/30 09:15:58;;;;;;;2.40;0.40;;;;;;;25.41;65.33;99753.95;84077;286;24123;-66
2023/07/30 09:18:01;;;;;;;3.90;1.10;;;;;;;25.25;66.13;99743.56;84090;286;135779;-68
2023/07/30 09:20:04;;;;;;;1.10;1.10;;;;;;;25.23;66.46;99751.32;84115;286;137844;-67
2023/07/30 09:22:07;;;;;;;0.90;0.90;;;;;;;25.16;66.03;99751.16;84051;286;25234;-67
2023/07/30 09:24:08;;;;;;;0.90;0.80;;;;;;;25.12;66.59;99750.41;84006;286;136334;-66
2023/07/30 09:26:11;;;;;;;2.40;0.80;;;;;;;25.07;67.60;99751.80;84178;286;22560;-69
2023/07/30 09:28:13;;;;;;;2.40;2.00;;;;;;;25.03;67.01;99750.63;83945;286;136089;-68
2023/07/30 09:30:22;;;;;;;4.40;0.60;;;;;;;25.02;67.02;99752.11;84153;286;22550;-67
2023/07/30 09:32:31;;;;;;;1.00;1.00;;;;;;;25.06;68.71;99755.59;84094;286;135770;-68
2023/07/30 09:34:33;;;;;;;1.50;1.00;;;;;;;25.09;69.22;99753.84;84400;286;26346;-68
2023/07/30 09:36:35;;;;;;;1.10;0.70;;;;;;;25.13;70.25;99750.39;83803;286;136291;-64
2023/07/30 09:38:42;;;;;;;4.40;4.00;;;;;;;25.15;69.96;99748.66;83809;286;22570;-66